Tyler Pounds Regional Airport
KTYR : now visible

Airfield :











YOU CAN JOIN US ON...

 
LOGIN :

Register | Disclaimer

   EN    FR    IT 

 









Legend :    VFR   Marginal VFR   IFR   Intensive IFR   Very Intensive IFR
Visi :
Ceiling :
>= 8 km
>= 3000ft
5 to 8 km
1000 to 3000 ft
1500m to 5 km
500 to 1000 ft
800 to 1500m
200 to 500 ft
< 800m
< 200 ft
Symbols :   Thunderstorms  Fog  Heavy snow  Heavy precipitations  Wind > 20 kt






- Airport Elevation : 544 ft
- IATA code : TYR


KTYR - Tyler Pounds Regional

CURRENT METAR :
  • 141153Z AUTO 00000KT 1/2SM FG VV001 02/01 A2985 RMK AO2 SLP108 I6000 T00220011 10078 20022 50000

EXPIRED METARs :
  • 141145Z AUTO 00000KT 1/2SM FG VV001 02/01 A2986 RMK AO2 T00220011
  • 141134Z AUTO 00000KT 1 3/4SM BR OVC001 02/01 A2985 RMK AO2 T00220011
  • 141121Z AUTO 00000KT 9SM OVC001 03/02 A2985 RMK AO2 T00280017
  • 141106Z AUTO 00000KT 3SM BR BKN002 03/02 A2986 RMK AO2 T00280017
  • 141053Z AUTO 00000KT 2SM BR BKN002 03/02 A2986 RMK AO2 SLP110 I1000 T00280017
  • 141022Z AUTO 26004KT 1 3/4SM BR BKN002 02/01 A2986 RMK AO2 I1000 T00220011
  • 141016Z AUTO 26003KT 4SM BR SCT002 02/01 A2986 RMK AO2 I1000 T00220011
  • 140953Z AUTO 00000KT 9SM CLR 03/01 A2986 RMK AO2 SLP111 T00280011

TAF KTYR
Valid from the 14 at 12:00 until the 15 at 12:00 UTC


141202Z 1412/1512 VRB03KT 2SM BR BKN002
TEMPO 1412/1414 1/2SM FG VV001
FM141500 VRB03KT P6SM SCT010 BKN150 BKN250
FM141800 VRB04KT P6SM BKN120 BKN250
FM142100 14006KT P6SM SCT250
FM150000 11006KT P6SM FEW250
FM150900 14008KT 5SM BR BKN015



MET'MAP, your aeronautical weather chart ! - Copyright ORBIFLY December 2007 - Disclaimer

ORBIFLY MET'MAP TEAM :

Programming & Development : Alexandra Zaïnal
Concept & original design : Baudouin d'Aumeries
Assistance for programming : Marc-Olivier Méhu
Technical & hardware support : Manuel Goepfert

Contact : metmap@orbifly.com




SOURCES & CREDITS :

   NOAA       Earth
Advisory